Time;durP1;ratioP1;P1;durP2;ratioP2;P2;SDS_P1;SDS_P2;PMS_P1;PMS_P2;Temp;Humidity;BMP_temperature;BMP_pressure;BME280_temperature;BME280_humidity;BME280_pressure;Samples;Min_cycle;Max_cycle;Signal;HPM_P1;HPM_P2
2021/12/28 00:00:00;;;;;;;;;;;23.10;34.30;;;;;;5126895;28;19923;-60
2021/12/28 00:02:25;;;;;;;;;;;22.90;34.50;;;;;;5123103;28;19992;-61
2021/12/28 00:04:51;;;;;;;;;;;23.10;34.30;;;;;;5122001;28;19924;-60
2021/12/28 00:07:17;;;;;;;;;;;22.80;34.60;;;;;;5127235;28;20333;-56
2021/12/28 00:09:43;;;;;;;;;;;23.00;34.30;;;;;;5122561;28;20410;-61
2021/12/28 00:12:09;;;;;;;;;;;23.00;34.10;;;;;;5122031;28;19931;-55
2021/12/28 00:14:37;;;;;;;;;;;22.90;34.40;;;;;;5127370;28;19941;-59
2021/12/28 00:19:48;;;;;;;;;;;23.10;34.10;;;;;;5121818;28;20010;-55
2021/12/28 00:22:14;;;;;;;;;;;23.00;34.20;;;;;;5127095;28;19938;-63
2021/12/28 00:24:40;;;;;;;;;;;23.10;34.00;;;;;;5121511;28;20023;-58
2021/12/28 00:27:06;;;;;;;;;;;22.80;34.40;;;;;;5126384;28;19923;-58
2021/12/28 00:29:31;;;;;;;;;;;23.10;34.00;;;;;;5123516;28;19970;-63
2021/12/28 00:31:57;;;;;;;;;;;23.20;33.80;;;;;;5122143;28;19923;-52
2021/12/28 00:34:23;;;;;;;;;;;22.80;34.30;;;;;;5127008;28;20366;-60
2021/12/28 00:36:49;;;;;;;;;;;23.00;34.00;;;;;;5121715;28;20326;-56
2021/12/28 00:39:14;;;;;;;;;;;23.00;33.90;;;;;;5121472;28;19976;-59
2021/12/28 00:41:40;;;;;;;;;;;23.10;33.80;;;;;;5126648;28;19930;-62
2021/12/28 00:44:06;;;;;;;;;;;23.00;33.90;;;;;;5121335;28;19969;-59
2021/12/28 00:46:32;;;;;;;;;;;22.90;34.00;;;;;;5123957;28;20014;-59
2021/12/28 00:48:58;;;;;;;;;;;23.10;33.60;;;;;;5125071;28;19927;-58
2021/12/28 00:51:24;;;;;;;;;;;22.80;34.10;;;;;;5121131;28;20303;-55
2021/12/28 00:53:49;;;;;;;;;;;23.00;33.80;;;;;;5126610;28;19930;-60
2021/12/28 00:56:15;;;;;;;;;;;23.00;33.70;;;;;;5102884;28;19927;-56
2021/12/28 00:58:41;;;;;;;;;;;23.20;33.50;;;;;;5121021;28;19923;-59
2021/12/28 01:01:07;;;;;;;;;;;23.10;33.70;;;;;;5126020;28;19924;-58
2021/12/28 01:03:34;;;;;;;;;;;23.00;33.70;;;;;;5121478;28;19927;-58
2021/12/28 01:06:01;;;;;;;;;;;22.90;33.90;;;;;;5121446;28;19978;-56
2021/12/28 01:08:27;;;;;;;;;;;23.00;33.70;;;;;;5126666;28;19928;-59
2021/12/28 01:10:52;;;;;;;;;;;23.20;33.50;;;;;;5121027;28;20046;-49
2021/12/28 01:13:18;;;;;;;;;;;22.90;33.90;;;;;;5126318;28;19972;-56
2021/12/28 01:15:44;;;;;;;;;;;23.00;33.70;;;;;;5120687;28;19927;-62
2021/12/28 01:18:10;;;;;;;;;;;23.00;33.70;;;;;;5121024;28;19924;-56
2021/12/28 01:20:36;;;;;;;;;;;22.80;34.00;;;;;;5126099;28;20531;-55
2021/12/28 01:23:02;;;;;;;;;;;23.10;33.70;;;;;;5121253;28;19923;-63
2021/12/28 01:25:27;;;;;;;;;;;23.10;33.50;;;;;;5120883;28;20226;-62
2021/12/28 01:27:53;;;;;;;;;;;23.00;33.80;;;;;;5107072;28;19971;-56
2021/12/28 01:30:20;;;;;;;;;;;22.80;34.10;;;;;;5120742;28;20394;-57
2021/12/28 01:32:46;;;;;;;;;;;23.00;33.70;;;;;;5126307;28;19923;-61
2021/12/28 01:35:13;;;;;;;;;;;23.00;33.50;;;;;;5120247;28;20332;-54
2021/12/28 01:37:39;;;;;;;;;;;23.10;33.50;;;;;;5120228;28;19968;-59
2021/12/28 01:40:06;;;;;;;;;;;22.90;33.60;;;;;;5126215;28;19927;-53
2021/12/28 01:42:32;;;;;;;;;;;22.90;33.60;;;;;;5102364;28;19924;-60
2021/12/28 01:44:58;;;;;;;;;;;22.90;33.60;;;;;;5120622;28;19960;-57
2021/12/28 01:47:23;;;;;;;;;;;23.00;33.50;;;;;;5126166;28;19923;-62
2021/12/28 01:49:49;;;;;;;;;;;23.00;33.40;;;;;;5120629;28;19930;-56
2021/12/28 01:52:15;;;;;;;;;;;22.80;33.70;;;;;;5124779;28;19962;-59
2021/12/28 01:54:42;;;;;;;;;;;23.10;33.40;;;;;;5121205;28;19952;-61
2021/12/28 01:57:07;;;;;;;;;;;23.00;33.40;;;;;;5120275;28;20038;-57
2021/12/28 01:59:33;;;;;;;;;;;22.50;34.20;;;;;;5126278;28;19931;-57
2021/12/28 02:01:59;;;;;;;;;;;22.80;33.80;;;;;;5120435;28;20018;-53
2021/12/28 02:04:26;;;;;;;;;;;22.90;33.60;;;;;;5120602;28;19933;-55
2021/12/28 02:06:52;;;;;;;;;;;23.00;33.50;;;;;;5124909;27;19930;-60
2021/12/28 02:09:18;;;;;;;;;;;23.10;33.30;;;;;;5120232;28;20426;-59
2021/12/28 02:11:43;;;;;;;;;;;22.90;33.60;;;;;;5121384;28;20333;-57
2021/12/28 02:14:10;;;;;;;;;;;23.00;33.50;;;;;;5124320;28;19924;-60
2021/12/28 02:16:36;;;;;;;;;;;22.80;33.60;;;;;;5101660;28;19928;-53
2021/12/28 02:19:03;;;;;;;;;;;22.90;33.50;;;;;;5125652;28;19957;-58
2021/12/28 02:21:31;;;;;;;;;;;23.10;33.30;;;;;;5119871;28;20010;-54
2021/12/28 02:24:00;;;;;;;;;;;23.00;33.30;;;;;;5101673;28;19923;-54
2021/12/28 02:26:26;;;;;;;;;;;23.00;33.20;;;;;;5125319;28;19972;-60
2021/12/28 02:28:52;;;;;;;;;;;23.00;33.30;;;;;;5119808;28;19923;-63
2021/12/28 02:31:18;;;;;;;;;;;23.00;33.40;;;;;;5120055;28;20356;-55
2021/12/28 02:33:44;;;;;;;;;;;22.90;33.50;;;;;;5124859;28;19923;-54
2021/12/28 02:36:09;;;;;;;;;;;23.10;33.20;;;;;;5120167;28;19941;-62
2021/12/28 02:38:35;;;;;;;;;;;23.10;33.20;;;;;;5125241;28;19935;-58
2021/12/28 02:41:02;;;;;;;;;;;22.90;33.40;;;;;;5119820;28;20014;-54
2021/12/28 02:43:27;;;;;;;;;;;23.10;33.20;;;;;;5119895;28;19999;-61
2021/12/28 02:45:54;;;;;;;;;;;23.00;33.20;;;;;;5125121;28;19939;-57
2021/12/28 02:48:21;;;;;;;;;;;23.00;33.30;;;;;;5119518;28;20013;-61
2021/12/28 02:50:48;;;;;;;;;;;23.00;33.20;;;;;;5119498;28;20326;-56
2021/12/28 02:53:14;;;;;;;;;;;22.90;33.20;;;;;;5124956;28;19930;-56
2021/12/28 02:55:40;;;;;;;;;;;23.00;33.10;;;;;;5120121;28;19927;-58
2021/12/28 02:58:10;;;;;;;;;;;22.70;33.50;;;;;;5123290;28;20031;-57
2021/12/28 03:00:40;;;;;;;;;;;22.80;33.40;;;;;;5123401;28;19927;-53
2021/12/28 03:03:10;;;;;;;;;;;23.00;33.10;;;;;;5119687;28;20018;-58
2021/12/28 03:05:36;;;;;;;;;;;22.70;33.50;;;;;;5124838;28;20293;-55
2021/12/28 03:08:01;;;;;;;;;;;22.80;33.40;;;;;;5119512;28;20014;-57
2021/12/28 03:10:27;;;;;;;;;;;22.90;33.10;;;;;;5119245;28;19923;-60
2021/12/28 03:12:53;;;;;;;;;;;23.10;32.90;;;;;;5125369;28;19931;-51
2021/12/28 03:15:19;;;;;;;;;;;23.00;33.00;;;;;;5119393;28;19958;-53
2021/12/28 03:17:45;;;;;;;;;;;23.10;32.90;;;;;;5119565;27;20318;-58
2021/12/28 03:20:11;;;;;;;;;;;22.80;33.20;;;;;;5127649;28;20348;-54
2021/12/28 03:22:37;;;;;;;;;;;22.90;33.10;;;;;;5122675;28;20458;-56
2021/12/28 03:25:03;;;;;;;;;;;23.10;32.80;;;;;;5128095;28;19931;-61
2021/12/28 03:27:29;;;;;;;;;;;23.00;33.00;;;;;;5122675;28;19927;-54
2021/12/28 03:29:55;;;;;;;;;;;23.00;33.00;;;;;;5122645;28;20337;-62
2021/12/28 03:32:20;;;;;;;;;;;23.10;32.90;;;;;;5128660;28;19927;-56
2021/12/28 03:34:46;;;;;;;;;;;23.00;33.00;;;;;;5122817;28;19923;-56
2021/12/28 03:37:12;;;;;;;;;;;23.20;32.80;;;;;;5122935;28;20501;-62
2021/12/28 03:39:38;;;;;;;;;;;23.20;32.70;;;;;;5128049;28;20312;-53
2021/12/28 03:42:05;;;;;;;;;;;22.90;33.20;;;;;;5122533;28;19928;-53
2021/12/28 03:44:31;;;;;;;;;;;23.10;32.90;;;;;;5126883;28;19927;-59
2021/12/28 03:46:56;;;;;;;;;;;23.10;32.80;;;;;;5123410;28;19931;-54
2021/12/28 03:49:22;;;;;;;;;;;22.90;33.10;;;;;;5122591;28;19949;-55
2021/12/28 03:51:48;;;;;;;;;;;23.00;32.90;;;;;;5128200;28;19924;-62
2021/12/28 03:54:14;;;;;;;;;;;23.00;32.90;;;;;;5122635;28;19972;-55
2021/12/28 03:56:40;;;;;;;;;;;22.80;33.20;;;;;;5122372;28;19980;-62
2021/12/28 03:59:05;;;;;;;;;;;22.90;33.00;;;;;;5127835;28;20398;-56
2021/12/28 04:01:31;;;;;;;;;;;23.00;32.90;;;;;;5122117;28;19988;-61
2021/12/28 04:03:57;;;;;;;;;;;23.00;32.90;;;;;;5124653;28;20174;-60
2021/12/28 04:06:23;;;;;;;;;;;22.80;33.10;;;;;;5106836;28;19930;-53
2021/12/28 04:08:49;;;;;;;;;;;23.00;33.00;;;;;;5122653;28;19972;-62
2021/12/28 04:11:25;;;;;;;;;;;23.00;32.80;;;;;;5127513;28;20387;-55
2021/12/28 04:14:00;;;;;;;;;;;22.80;33.20;;;;;;5122079;28;20293;-63
2021/12/28 04:16:26;;;;;;;;;;;22.90;33.00;;;;;;5103644;28;20326;-54
2021/12/28 04:18:52;;;;;;;;;;;23.00;33.00;;;;;;5127601;28;19923;-60
2021/12/28 04:21:18;;;;;;;;;;;23.00;33.00;;;;;;5121829;28;20290;-58
2021/12/28 04:23:44;;;;;;;;;;;22.70;33.70;;;;;;5121559;28;20535;-54
2021/12/28 04:26:09;;;;;;;;;;;22.90;33.10;;;;;;5109033;28;19942;-62
2021/12/28 04:28:35;;;;;;;;;;;22.80;33.30;;;;;;5121762;28;19969;-54
2021/12/28 04:31:01;;;;;;;;;;;22.90;33.20;;;;;;5124593;27;19931;-61
2021/12/28 04:33:27;;;;;;;;;;;23.00;33.00;;;;;;5124767;28;20381;-55
2021/12/28 04:35:53;;;;;;;;;;;22.90;33.10;;;;;;5121746;28;20370;-57
2021/12/28 04:38:18;;;;;;;;;;;22.90;33.20;;;;;;5126882;28;19923;-59
2021/12/28 04:40:44;;;;;;;;;;;23.00;33.00;;;;;;5121357;28;19937;-56
2021/12/28 04:43:11;;;;;;;;;;;23.00;33.00;;;;;;5121420;28;20328;-60
2021/12/28 04:45:37;;;;;;;;;;;23.00;33.00;;;;;;5127477;28;20318;-55
2021/12/28 04:48:04;;;;;;;;;;;22.90;33.20;;;;;;5121528;28;19929;-64
2021/12/28 04:50:36;;;;;;;;;;;23.00;33.20;;;;;;5103382;28;19934;-58
2021/12/28 04:53:08;;;;;;;;;;;22.50;33.80;;;;;;5126774;28;20022;-53
2021/12/28 04:55:34;;;;;;;;;;;22.80;33.30;;;;;;5121325;28;19923;-58
2021/12/28 04:57:59;;;;;;;;;;;23.00;33.10;;;;;;5126636;28;20260;-55
2021/12/28 05:00:25;;;;;;;;;;;23.10;33.00;;;;;;5120926;28;19934;-61
2021/12/28 05:02:51;;;;;;;;;;;23.00;33.20;;;;;;5121052;28;19934;-54
2021/12/28 05:05:17;;;;;;;;;;;22.90;33.30;;;;;;5126804;28;19980;-64
2021/12/28 05:07:42;;;;;;;;;;;22.90;33.40;;;;;;5121338;28;19923;-56
2021/12/28 05:10:08;;;;;;;;;;;23.00;33.30;;;;;;5102972;28;20270;-62
2021/12/28 05:12:34;;;;;;;;;;;22.90;33.50;;;;;;5126653;28;19928;-56
2021/12/28 05:15:00;;;;;;;;;;;22.90;33.60;;;;;;5120848;28;19983;-56
2021/12/28 05:17:26;;;;;;;;;;;23.00;33.40;;;;;;5124999;28;19924;-57
2021/12/28 05:19:52;;;;;;;;;;;22.60;34.10;;;;;;5122656;28;19930;-57
2021/12/28 05:22:18;;;;;;;;;;;22.70;34.20;;;;;;5120919;28;19927;-56
2021/12/28 05:24:43;;;;;;;;;;;22.90;33.80;;;;;;5126406;28;19928;-57
2021/12/28 05:27:09;;;;;;;;;;;23.00;33.70;;;;;;5121253;28;19924;-55
2021/12/28 05:29:35;;;;;;;;;;;22.80;34.20;;;;;;5120938;28;19931;-53
2021/12/28 05:32:01;;;;;;;;;;;22.90;33.90;;;;;;5126443;28;19931;-54
2021/12/28 05:34:26;;;;;;;;;;;22.90;33.90;;;;;;5120630;28;19923;-62
2021/12/28 05:36:52;;;;;;;;;;;23.00;33.90;;;;;;5122353;28;19937;-58
2021/12/28 05:39:18;;;;;;;;;;;22.90;33.90;;;;;;5124402;28;19966;-61
2021/12/28 05:41:44;;;;;;;;;;;23.00;33.90;;;;;;5120282;27;20296;-58
2021/12/28 05:44:09;;;;;;;;;;;22.70;34.40;;;;;;5126049;28;19923;-55
2021/12/28 05:46:35;;;;;;;;;;;23.00;34.00;;;;;;5120845;28;19935;-60
2021/12/28 05:49:01;;;;;;;;;;;22.90;33.90;;;;;;5102296;28;19924;-54
2021/12/28 05:51:27;;;;;;;;;;;22.70;34.40;;;;;;5126077;28;20008;-59
2021/12/28 05:53:52;;;;;;;;;;;23.00;34.10;;;;;;5120342;28;19939;-53
2021/12/28 05:56:18;;;;;;;;;;;22.90;34.30;;;;;;5120193;28;19927;-56
2021/12/28 05:58:44;;;;;;;;;;;23.10;34.00;;;;;;5126296;28;20025;-58
2021/12/28 06:01:10;;;;;;;;;;;23.10;33.90;;;;;;5120985;28;20386;-56
2021/12/28 06:03:35;;;;;;;;;;;23.00;34.10;;;;;;5126034;28;19984;-54
2021/12/28 06:06:01;;;;;;;;;;;23.00;34.00;;;;;;5120453;28;19924;-64
2021/12/28 06:08:27;;;;;;;;;;;23.00;33.90;;;;;;5120050;28;19974;-54
2021/12/28 06:10:53;;;;;;;;;;;23.00;34.00;;;;;;5125600;28;19923;-61
2021/12/28 06:13:19;;;;;;;;;;;23.20;33.80;;;;;;5120269;28;20036;-56
2021/12/28 06:15:44;;;;;;;;;;;23.10;34.00;;;;;;5119831;28;20045;-62
2021/12/28 06:18:10;;;;;;;;;;;23.10;34.00;;;;;;5126105;28;20405;-58
2021/12/28 06:20:36;;;;;;;;;;;22.90;34.40;;;;;;5120147;28;19927;-56
2021/12/28 06:23:02;;;;;;;;;;;23.10;34.20;;;;;;5125907;28;19924;-59
2021/12/28 06:25:27;;;;;;;;;;;23.10;34.00;;;;;;5101723;28;19927;-61
2021/12/28 06:27:53;;;;;;;;;;;23.10;34.10;;;;;;5120062;28;19927;-61
2021/12/28 06:30:19;;;;;;;;;;;23.10;34.20;;;;;;5106768;28;20069;-54
2021/12/28 06:32:45;;;;;;;;;;;23.00;34.30;;;;;;5119910;28;19923;-56
2021/12/28 06:35:11;;;;;;;;;;;22.90;34.60;;;;;;5119722;28;20192;-54
2021/12/28 06:37:37;;;;;;;;;;;23.00;34.50;;;;;;5125567;28;20393;-54
2021/12/28 06:40:03;;;;;;;;;;;23.00;34.60;;;;;;5120124;28;19923;-55
2021/12/28 06:42:29;;;;;;;;;;;23.10;34.40;;;;;;5125382;28;19924;-62
2021/12/28 06:44:55;;;;;;;;;;;23.00;34.50;;;;;;5119701;28;20344;-54
2021/12/28 06:47:21;;;;;;;;;;;23.00;34.50;;;;;;5119841;28;20325;-63
2021/12/28 06:49:47;;;;;;;;;;;22.60;35.20;;;;;;5125174;28;19927;-55
2021/12/28 06:52:13;;;;;;;;;;;22.60;35.30;;;;;;5119632;27;20287;-54
2021/12/28 06:54:39;;;;;;;;;;;22.90;34.70;;;;;;5123479;28;20219;-53
2021/12/28 06:57:07;;;;;;;;;;;23.20;34.30;;;;;;5129156;28;20492;-59
2021/12/28 06:59:33;;;;;;;;;;;23.10;34.30;;;;;;5123575;28;19931;-55
2021/12/28 07:02:00;;;;;;;;;;;23.00;34.40;;;;;;5126613;28;20001;-59
2021/12/28 07:04:25;;;;;;;;;;;23.10;34.10;;;;;;5126123;28;19934;-62
2021/12/28 07:06:51;;;;;;;;;;;23.00;34.40;;;;;;5123190;28;19924;-54
2021/12/28 07:09:17;;;;;;;;;;;23.00;34.30;;;;;;5128570;28;19923;-63
2021/12/28 07:11:43;;;;;;;;;;;23.00;34.20;;;;;;5122980;28;20215;-54
2021/12/28 07:14:08;;;;;;;;;;;23.00;34.20;;;;;;5123315;28;19928;-59
2021/12/28 07:16:34;;;;;;;;;;;23.00;34.20;;;;;;5128523;28;19934;-55
2021/12/28 07:19:00;;;;;;;;;;;23.00;34.30;;;;;;5123250;28;19938;-59
2021/12/28 07:21:26;;;;;;;;;;;23.00;34.20;;;;;;5123496;28;19923;-59
2021/12/28 07:23:52;;;;;;;;;;;22.90;34.20;;;;;;5128173;28;19923;-58
2021/12/28 07:26:17;;;;;;;;;;;23.10;33.90;;;;;;5122847;28;19927;-57
2021/12/28 07:28:43;;;;;;;;;;;22.90;34.30;;;;;;5127859;28;19923;-55
2021/12/28 07:31:09;;;;;;;;;;;23.00;34.00;;;;;;5104712;28;19934;-59
2021/12/28 07:33:34;;;;;;;;;;;22.90;34.20;;;;;;5123062;28;20357;-55
2021/12/28 07:36:00;;;;;;;;;;;23.10;34.00;;;;;;5128470;28;19923;-61
2021/12/28 07:38:26;;;;;;;;;;;23.00;34.10;;;;;;5123124;28;19927;-55
2021/12/28 07:40:52;;;;;;;;;;;22.90;34.40;;;;;;5122671;28;20025;-55
2021/12/28 07:43:18;;;;;;;;;;;23.10;34.10;;;;;;5128083;28;19932;-60
2021/12/28 07:45:43;;;;;;;;;;;22.70;34.80;;;;;;5122579;28;19923;-55
2021/12/28 07:48:09;;;;;;;;;;;22.90;34.40;;;;;;5127746;28;19927;-63
2021/12/28 07:50:35;;;;;;;;;;;23.00;34.10;;;;;;5104258;28;19923;-54
2021/12/28 07:53:01;;;;;;;;;;;23.00;34.10;;;;;;5122638;28;20370;-62
2021/12/28 07:55:26;;;;;;;;;;;23.10;34.00;;;;;;5128007;28;20298;-57
2021/12/28 07:57:52;;;;;;;;;;;22.80;34.60;;;;;;5104014;28;19972;-55
2021/12/28 08:00:19;;;;;;;;;;;23.00;34.10;;;;;;5122870;28;20188;-59
2021/12/28 08:02:45;;;;;;;;;;;23.00;34.20;;;;;;5127682;28;19934;-53
2021/12/28 08:05:11;;;;;;;;;;;22.90;34.40;;;;;;5121140;27;20299;-58
2021/12/28 08:07:37;;;;;;;;;;;23.00;34.20;;;;;;5127566;28;19927;-55
2021/12/28 08:10:03;;;;;;;;;;;22.90;34.40;;;;;;5122633;28;19924;-60
2021/12/28 08:12:29;;;;;;;;;;;23.00;34.30;;;;;;5122458;28;19930;-57
2021/12/28 08:14:55;;;;;;;;;;;22.80;34.70;;;;;;5127616;28;20357;-56
2021/12/28 08:17:20;;;;;;;;;;;22.90;34.50;;;;;;5122280;28;19933;-58
2021/12/28 08:19:46;;;;;;;;;;;23.00;34.30;;;;;;5122125;28;20662;-60
2021/12/28 08:22:12;;;;;;;;;;;23.20;34.20;;;;;;5127419;28;19976;-58
2021/12/28 08:24:38;;;;;;;;;;;22.70;35.30;;;;;;5121655;28;19928;-57
2021/12/28 08:27:04;;;;;;;;;;;22.90;34.90;;;;;;5109121;28;19979;-60
2021/12/28 08:29:29;;;;;;;;;;;23.10;34.60;;;;;;5122844;28;20311;-57
2021/12/28 08:31:55;;;;;;;;;;;22.80;35.10;;;;;;5103539;28;19923;-56
2021/12/28 08:34:21;;;;;;;;;;;22.90;34.80;;;;;;5127206;28;19927;-62
2021/12/28 08:36:47;;;;;;;;;;;23.00;34.60;;;;;;5121882;28;19934;-54
2021/12/28 08:39:12;;;;;;;;;;;23.10;34.60;;;;;;5121748;28;20007;-64
2021/12/28 08:41:38;;;;;;;;;;;23.00;34.60;;;;;;5127219;28;20024;-53
2021/12/28 08:44:04;;;;;;;;;;;22.90;34.90;;;;;;5121306;28;20310;-61
2021/12/28 08:46:30;;;;;;;;;;;23.10;34.70;;;;;;5125164;28;19924;-59
2021/12/28 08:48:55;;;;;;;;;;;22.70;35.50;;;;;;5124299;28;19923;-58
2021/12/28 08:51:21;;;;;;;;;;;22.90;35.20;;;;;;5121666;28;19931;-60
2021/12/28 08:53:47;;;;;;;;;;;23.10;34.80;;;;;;5126890;28;19923;-59
2021/12/28 08:56:13;;;;;;;;;;;23.10;34.70;;;;;;5121423;28;19978;-57
2021/12/28 08:58:39;;;;;;;;;;;22.90;35.10;;;;;;5121219;28;19923;-61
2021/12/28 09:01:04;;;;;;;;;;;23.10;34.70;;;;;;5126441;28;20359;-55
2021/12/28 09:03:30;;;;;;;;;;;22.80;35.20;;;;;;5121344;28;20057;-54
2021/12/28 09:05:56;;;;;;;;;;;22.90;35.10;;;;;;5122915;28;20410;-58
2021/12/28 09:08:22;;;;;;;;;;;23.10;34.90;;;;;;5126159;28;19980;-56
2021/12/28 09:10:48;;;;;;;;;;;22.80;35.60;;;;;;5121305;28;20281;-57
2021/12/28 09:13:14;;;;;;;;;;;23.00;35.30;;;;;;5126504;28;19923;-56
2021/12/28 09:15:40;;;;;;;;;;;22.90;35.40;;;;;;5120802;27;20418;-62
2021/12/28 09:18:06;;;;;;;;;;;23.00;35.40;;;;;;5121305;28;20539;-60
2021/12/28 09:20:32;;;;;;;;;;;23.10;35.30;;;;;;5126342;28;19923;-63
2021/12/28 09:22:57;;;;;;;;;;;23.00;35.30;;;;;;5121580;28;19932;-59
2021/12/28 09:25:23;;;;;;;;;;;23.10;35.20;;;;;;5121465;28;20371;-64
2021/12/28 09:27:49;;;;;;;;;;;23.10;35.20;;;;;;5126609;28;20370;-56
2021/12/28 09:30:15;;;;;;;;;;;22.80;36.00;;;;;;5102563;28;20009;-63
2021/12/28 09:32:41;;;;;;;;;;;23.10;35.40;;;;;;5126477;28;20275;-57
2021/12/28 09:35:07;;;;;;;;;;;23.00;35.60;;;;;;5120628;28;19931;-63
2021/12/28 09:37:33;;;;;;;;;;;23.10;35.50;;;;;;5120678;28;19931;-57
2021/12/28 09:39:59;;;;;;;;;;;23.00;35.90;;;;;;5126061;28;20396;-59
2021/12/28 09:42:25;;;;;;;;;;;23.00;35.70;;;;;;5121329;28;19927;-55
2021/12/28 09:44:51;;;;;;;;;;;22.90;35.90;;;;;;5120775;28;20187;-61
2021/12/28 09:47:17;;;;;;;;;;;23.00;35.80;;;;;;5126369;28;19931;-58
2021/12/28 09:49:43;;;;;;;;;;;22.70;36.50;;;;;;5120608;28;19952;-56
2021/12/28 09:52:09;;;;;;;;;;;23.00;36.10;;;;;;5126176;28;19976;-60
2021/12/28 09:54:35;;;;;;;;;;;23.10;35.90;;;;;;5120477;28;19980;-54
2021/12/28 09:57:01;;;;;;;;;;;23.00;36.20;;;;;;5120319;28;19932;-68
2021/12/28 09:59:27;;;;;;;;;;;23.10;36.10;;;;;;5126176;28;20280;-52
2021/12/28 10:01:53;;;;;;;;;;;22.60;37.00;;;;;;5120712;28;20309;-56
2021/12/28 10:04:19;;;;;;;;;;;23.00;36.30;;;;;;5120759;28;19930;-63
2021/12/28 10:06:44;;;;;;;;;;;23.10;36.20;;;;;;5125857;28;19928;-58
2021/12/28 10:09:11;;;;;;;;;;;22.90;36.70;;;;;;5120247;28;20018;-64
2021/12/28 10:11:38;;;;;;;;;;;23.20;36.20;;;;;;5124141;28;19923;-59
2021/12/28 10:14:23;;;;;;;;;;;23.10;36.50;;;;;;5121988;28;20524;-61
2021/12/28 10:16:56;;;;;;;;;;;23.20;36.40;;;;;;5119829;28;20371;-51
2021/12/28 10:19:36;;;;;;;;;;;22.80;37.20;;;;;;5124507;28;19930;-59
2021/12/28 10:22:20;;;;;;;;;;;23.00;36.70;;;;;;5125640;28;20002;-60
2021/12/28 10:24:46;;;;;;;;;;;22.80;37.00;;;;;;5120298;28;19999;-56
2021/12/28 10:27:14;;;;;;;;;;;23.00;36.80;;;;;;5085876;28;19923;-59
2021/12/28 10:29:39;;;;;;;;;;;23.00;36.80;;;;;;5124871;28;20383;-57
2021/12/28 10:32:15;;;;;;;;;;;22.90;37.10;;;;;;5120042;28;19980;-61
2021/12/28 10:34:48;;;;;;;;;;;23.10;36.80;;;;;;5106594;28;19927;-56
2021/12/28 10:37:33;;;;;;;;;;;23.00;37.00;;;;;;5120981;28;20379;-62
2021/12/28 10:39:59;;;;;;;;;;;23.10;37.00;;;;;;5119885;28;19930;-60
2021/12/28 10:42:38;;;;;;;;;;;23.10;37.00;;;;;;5105623;28;19950;-57
2021/12/28 10:45:04;;;;;;;;;;;22.80;37.60;;;;;;5122571;28;19930;-59
2021/12/28 10:47:30;;;;;;;;;;;23.00;37.30;;;;;;5120022;28;20359;-61
2021/12/28 10:49:58;;;;;;;;;;;22.90;37.60;;;;;;5125033;28;19934;-59
2021/12/28 10:52:26;;;;;;;;;;;22.90;37.70;;;;;;5119554;28;20184;-64
2021/12/28 10:55:02;;;;;;;;;;;23.10;37.40;;;;;;5119792;28;20027;-56
2021/12/28 10:57:37;;;;;;;;;;;22.90;38.00;;;;;;5103408;28;19927;-63
2021/12/28 11:00:25;;;;;;;;;;;23.00;37.70;;;;;;5119922;28;20065;-58
2021/12/28 11:02:52;;;;;;;;;;;22.80;38.40;;;;;;5119702;28;20018;-65
2021/12/28 11:05:28;;;;;;;;;;;23.20;37.70;;;;;;5106009;28;19934;-56
2021/12/28 11:07:54;;;;;;;;;;;22.80;38.50;;;;;;5119376;28;19923;-59
2021/12/28 11:10:20;;;;;;;;;;;23.00;38.00;;;;;;5100868;28;19929;-56
2021/12/28 11:12:46;;;;;;;;;;;23.00;38.30;;;;;;5125038;28;19927;-65
2021/12/28 11:15:15;;;;;;;;;;;22.90;38.50;;;;;;5101496;28;19972;-59
2021/12/28 11:17:41;;;;;;;;;;;22.80;38.80;;;;;;5101345;28;19978;-59
2021/12/28 11:20:07;;;;;;;;;;;23.00;38.40;;;;;;5125164;28;19923;-59
2021/12/28 11:22:34;;;;;;;;;;;23.10;38.30;;;;;;5119258;28;19930;-64
2021/12/28 11:25:00;;;;;;;;;;;23.20;38.20;;;;;;5104766;28;20006;-59
2021/12/28 11:27:27;;;;;;;;;;;22.90;38.80;;;;;;5119336;28;19930;-60
2021/12/28 11:29:53;;;;;;;;;;;23.00;38.30;;;;;;5119346;28;19930;-57
2021/12/28 11:32:20;;;;;;;;;;;22.80;38.90;;;;;;5125145;28;20370;-59
2021/12/28 11:34:46;;;;;;;;;;;23.10;38.40;;;;;;5099401;28;20043;-57
2021/12/28 11:37:14;;;;;;;;;;;22.70;39.40;;;;;;5119380;28;20674;-54
2021/12/28 11:39:41;;;;;;;;;;;22.90;39.00;;;;;;5125543;27;19996;-64
2021/12/28 11:42:08;;;;;;;;;;;23.10;38.70;;;;;;5087573;28;19923;-57
2021/12/28 11:44:35;;;;;;;;;;;23.00;38.80;;;;;;5125633;28;19924;-59
2021/12/28 11:47:01;;;;;;;;;;;23.20;38.60;;;;;;5125613;28;19943;-57
2021/12/28 11:49:28;;;;;;;;;;;22.80;39.20;;;;;;5122215;28;20467;-59
2021/12/28 11:51:55;;;;;;;;;;;23.00;38.90;;;;;;5128489;28;20022;-61
2021/12/28 11:54:22;;;;;;;;;;;22.90;39.10;;;;;;5122556;28;19923;-61
2021/12/28 11:56:49;;;;;;;;;;;23.10;38.80;;;;;;5104684;28;20026;-60
2021/12/28 11:59:16;;;;;;;;;;;22.80;39.30;;;;;;5127704;28;20063;-61
2021/12/28 12:01:46;;;;;;;;;;;22.90;39.20;;;;;;5122340;28;20321;-57
2021/12/28 12:04:31;;;;;;;;;;;23.10;38.90;;;;;;5122187;28;20701;-61
2021/12/28 12:07:09;;;;;;;;;;;23.00;39.00;;;;;;5127332;28;19936;-57
2021/12/28 12:09:56;;;;;;;;;;;22.80;39.80;;;;;;5122821;28;19927;-63
2021/12/28 12:12:21;;;;;;;;;;;23.10;39.20;;;;;;5122185;28;19923;-58
2021/12/28 12:14:50;;;;;;;;;;;22.80;39.70;;;;;;5127593;28;19924;-64
2021/12/28 12:17:25;;;;;;;;;;;23.00;39.40;;;;;;5121992;28;20051;-58
2021/12/28 12:19:51;;;;;;;;;;;22.80;40.10;;;;;;5122062;28;20194;-61
2021/12/28 12:22:29;;;;;;;;;;;23.10;39.60;;;;;;5127331;28;19970;-55
2021/12/28 12:24:55;;;;;;;;;;;23.00;39.90;;;;;;5121770;28;19923;-64
2021/12/28 12:27:39;;;;;;;;;;;23.00;39.90;;;;;;5122120;28;19931;-56
2021/12/28 12:30:28;;;;;;;;;;;22.80;40.40;;;;;;5123617;28;20298;-64
2021/12/28 12:33:05;;;;;;;;;;;23.10;39.90;;;;;;5106341;28;19927;-56
2021/12/28 12:35:32;;;;;;;;;;;22.90;40.50;;;;;;5121129;28;20138;-63
2021/12/28 12:38:02;;;;;;;;;;;23.00;40.30;;;;;;5127272;28;19928;-59
2021/12/28 12:40:49;;;;;;;;;;;22.80;40.70;;;;;;5121658;28;19923;-63
2021/12/28 12:43:15;;;;;;;;;;;23.10;40.30;;;;;;5119900;28;19934;-58
2021/12/28 12:46:01;;;;;;;;;;;22.80;40.90;;;;;;5126874;28;20034;-59
2021/12/28 12:48:36;;;;;;;;;;;23.00;40.50;;;;;;5101132;28;19927;-60
2021/12/28 12:53:50;;;;;;;;;;;23.10;40.30;;;;;;5126933;28;19934;-55
2021/12/28 12:56:19;;;;;;;;;;;23.00;40.60;;;;;;5121601;28;20068;-63
2021/12/28 12:58:46;;;;;;;;;;;23.10;40.50;;;;;;5103008;28;19927;-63
2021/12/28 13:01:19;;;;;;;;;;;23.20;40.20;;;;;;5108288;28;19934;-58
2021/12/28 13:03:45;;;;;;;;;;;22.80;41.00;;;;;;5101786;28;20051;-63
2021/12/28 13:06:11;;;;;;;;;;;23.00;40.60;;;;;;5121863;28;19968;-62
2021/12/28 13:08:37;;;;;;;;;;;22.80;41.00;;;;;;5126544;28;20359;-57
2021/12/28 13:11:02;;;;;;;;;;;23.10;40.50;;;;;;5121830;28;19931;-62
2021/12/28 13:13:28;;;;;;;;;;;23.00;40.50;;;;;;5126710;28;19963;-60
2021/12/28 13:15:54;;;;;;;;;;;23.10;40.30;;;;;;5121456;28;19927;-57
2021/12/28 13:18:20;;;;;;;;;;;22.80;40.80;;;;;;5120877;28;19931;-57
2021/12/28 13:20:47;;;;;;;;;;;23.10;40.30;;;;;;5125879;28;19923;-58
2021/12/28 13:23:13;;;;;;;;;;;23.20;39.90;;;;;;5121172;28;19923;-62
2021/12/28 13:25:40;;;;;;;;;;;23.10;40.00;;;;;;5121223;28;19960;-62
2021/12/28 13:28:07;;;;;;;;;;;22.80;40.40;;;;;;5108184;28;20438;-56
2021/12/28 13:30:34;;;;;;;;;;;23.00;40.20;;;;;;5102552;28;19979;-58
2021/12/28 13:33:00;;;;;;;;;;;23.00;39.80;;;;;;5122867;28;19923;-60
2021/12/28 13:35:27;;;;;;;;;;;23.00;39.80;;;;;;5120587;28;20030;-61
2021/12/28 13:37:54;;;;;;;;;;;23.10;39.40;;;;;;5120723;28;19928;-58
2021/12/28 13:40:20;;;;;;;;;;;23.00;39.50;;;;;;5126188;28;19930;-60
2021/12/28 13:42:47;;;;;;;;;;;22.80;39.60;;;;;;5121083;28;19927;-58
2021/12/28 13:45:26;;;;;;;;;;;22.90;39.50;;;;;;5120857;28;19927;-58
2021/12/28 13:47:55;;;;;;;;;;;23.10;39.20;;;;;;5107168;28;19958;-58
2021/12/28 13:50:21;;;;;;;;;;;23.10;39.00;;;;;;5120864;28;19923;-63
2021/12/28 13:52:46;;;;;;;;;;;23.20;38.50;;;;;;5120787;28;20004;-59
2021/12/28 13:55:12;;;;;;;;;;;22.90;38.90;;;;;;5125818;28;19927;-63
2021/12/28 13:57:38;;;;;;;;;;;23.00;38.60;;;;;;5120198;28;19931;-64
2021/12/28 14:00:05;;;;;;;;;;;23.00;38.70;;;;;;5123356;28;20321;-64
2021/12/28 14:02:31;;;;;;;;;;;22.90;38.80;;;;;;5123412;27;19938;-63
2021/12/28 14:04:57;;;;;;;;;;;22.90;38.70;;;;;;5120592;28;19923;-60
2021/12/28 14:07:23;;;;;;;;;;;23.00;38.50;;;;;;5125864;28;19934;-59
2021/12/28 14:09:49;;;;;;;;;;;23.00;38.60;;;;;;5120530;28;19985;-61
2021/12/28 14:12:15;;;;;;;;;;;23.00;38.30;;;;;;5101860;28;19923;-58
2021/12/28 14:14:45;;;;;;;;;;;22.90;38.70;;;;;;5125768;28;20006;-61
2021/12/28 14:17:14;;;;;;;;;;;23.00;38.30;;;;;;5101076;28;19930;-53
2021/12/28 14:19:41;;;;;;;;;;;22.80;39.00;;;;;;5120613;28;20034;-62